sensor_id;sensor_type;location;lat;lon;timestamp;temperature;humidity
8099;DHT22;4092;47.876;9.372;2023-12-20T00:01:18;3.00;99.90
8099;DHT22;4092;47.876;9.372;2023-12-20T00:03:45;3.00;99.90
8099;DHT22;4092;47.876;9.372;2023-12-20T00:06:12;2.90;99.90
8099;DHT22;4092;47.876;9.372;2023-12-20T00:08:39;3.00;99.90
8099;DHT22;4092;47.876;9.372;2023-12-20T00:11:06;3.00;99.90
8099;DHT22;4092;47.876;9.372;2023-12-20T00:13:34;2.90;99.90
8099;DHT22;4092;47.876;9.372;2023-12-20T00:16:00;3.00;99.90
8099;DHT22;4092;47.876;9.372;2023-12-20T00:18:27;3.00;99.90
8099;DHT22;4092;47.876;9.372;2023-12-20T00:20:54;3.00;99.90
8099;DHT22;4092;47.876;9.372;2023-12-20T00:23:21;3.00;99.90
8099;DHT22;4092;47.876;9.372;2023-12-20T00:25:49;3.00;99.90
8099;DHT22;4092;47.876;9.372;2023-12-20T00:28:16;3.10;99.90
8099;DHT22;4092;47.876;9.372;2023-12-20T00:30:44;3.10;99.90
8099;DHT22;4092;47.876;9.372;2023-12-20T00:33:11;3.10;99.90
8099;DHT22;4092;47.876;9.372;2023-12-20T00:35:38;3.10;99.90
8099;DHT22;4092;47.876;9.372;2023-12-20T00:38:05;3.10;99.90
8099;DHT22;4092;47.876;9.372;2023-12-20T00:40:32;3.10;99.90
8099;DHT22;4092;47.876;9.372;2023-12-20T00:42:59;3.10;99.90
8099;DHT22;4092;47.876;9.372;2023-12-20T00:45:27;3.20;99.90
8099;DHT22;4092;47.876;9.372;2023-12-20T00:47:55;3.10;99.90
8099;DHT22;4092;47.876;9.372;2023-12-20T00:50:22;3.20;99.90
8099;DHT22;4092;47.876;9.372;2023-12-20T00:52:49;3.20;99.90
8099;DHT22;4092;47.876;9.372;2023-12-20T00:55:17;3.20;99.90
8099;DHT22;4092;47.876;9.372;2023-12-20T00:57:44;3.30;99.90
8099;DHT22;4092;47.876;9.372;2023-12-20T01:00:11;3.30;99.90
8099;DHT22;4092;47.876;9.372;2023-12-20T01:02:39;3.30;99.90
8099;DHT22;4092;47.876;9.372;2023-12-20T01:05:07;3.30;99.90
8099;DHT22;4092;47.876;9.372;2023-12-20T01:07:35;3.30;99.90
8099;DHT22;4092;47.876;9.372;2023-12-20T01:10:02;3.30;99.90
8099;DHT22;4092;47.876;9.372;2023-12-20T01:12:28;3.30;99.90
8099;DHT22;4092;47.876;9.372;2023-12-20T01:14:55;3.30;99.90
8099;DHT22;4092;47.876;9.372;2023-12-20T01:17:24;3.30;99.90
8099;DHT22;4092;47.876;9.372;2023-12-20T01:19:51;3.30;99.90
8099;DHT22;4092;47.876;9.372;2023-12-20T01:22:19;3.30;99.90
8099;DHT22;4092;47.876;9.372;2023-12-20T01:24:46;3.30;99.90
8099;DHT22;4092;47.876;9.372;2023-12-20T01:27:13;3.30;99.90
8099;DHT22;4092;47.876;9.372;2023-12-20T01:29:40;3.30;99.90
8099;DHT22;4092;47.876;9.372;2023-12-20T01:32:07;3.30;99.90
8099;DHT22;4092;47.876;9.372;2023-12-20T01:34:34;3.30;99.90
8099;DHT22;4092;47.876;9.372;2023-12-20T01:37:00;3.30;99.90
8099;DHT22;4092;47.876;9.372;2023-12-20T01:39:29;3.30;99.90
8099;DHT22;4092;47.876;9.372;2023-12-20T01:41:56;3.30;99.90
8099;DHT22;4092;47.876;9.372;2023-12-20T01:44:23;3.30;99.90
8099;DHT22;4092;47.876;9.372;2023-12-20T01:46:50;3.30;99.90
8099;DHT22;4092;47.876;9.372;2023-12-20T01:49:17;3.30;99.90
8099;DHT22;4092;47.876;9.372;2023-12-20T01:51:45;3.30;99.90
8099;DHT22;4092;47.876;9.372;2023-12-20T01:54:12;3.40;99.90
8099;DHT22;4092;47.876;9.372;2023-12-20T01:56:41;3.30;99.90
8099;DHT22;4092;47.876;9.372;2023-12-20T01:59:08;3.40;99.90
8099;DHT22;4092;47.876;9.372;2023-12-20T02:01:36;3.40;99.90
8099;DHT22;4092;47.876;9.372;2023-12-20T02:04:03;3.40;99.90
8099;DHT22;4092;47.876;9.372;2023-12-20T02:06:31;3.50;99.90
8099;DHT22;4092;47.876;9.372;2023-12-20T02:09:00;3.60;99.90
8099;DHT22;4092;47.876;9.372;2023-12-20T02:11:27;3.50;99.90
8099;DHT22;4092;47.876;9.372;2023-12-20T02:13:56;3.50;99.90
8099;DHT22;4092;47.876;9.372;2023-12-20T02:16:23;3.60;99.90
8099;DHT22;4092;47.876;9.372;2023-12-20T02:18:50;3.60;99.90
8099;DHT22;4092;47.876;9.372;2023-12-20T02:21:17;3.60;99.90
8099;DHT22;4092;47.876;9.372;2023-12-20T02:23:45;3.60;99.90
8099;DHT22;4092;47.876;9.372;2023-12-20T02:26:13;3.60;99.90
8099;DHT22;4092;47.876;9.372;2023-12-20T02:28:40;3.70;99.90
8099;DHT22;4092;47.876;9.372;2023-12-20T02:31:07;3.60;99.90
8099;DHT22;4092;47.876;9.372;2023-12-20T02:33:33;3.70;99.90
8099;DHT22;4092;47.876;9.372;2023-12-20T02:36:00;3.70;99.90
8099;DHT22;4092;47.876;9.372;2023-12-20T02:38:27;3.60;99.90
8099;DHT22;4092;47.876;9.372;2023-12-20T02:40:56;3.60;99.90
8099;DHT22;4092;47.876;9.372;2023-12-20T02:43:23;3.60;99.90
8099;DHT22;4092;47.876;9.372;2023-12-20T02:45:49;3.50;99.90
8099;DHT22;4092;47.876;9.372;2023-12-20T02:48:17;3.60;99.90
8099;DHT22;4092;47.876;9.372;2023-12-20T02:50:45;3.50;99.90
8099;DHT22;4092;47.876;9.372;2023-12-20T02:53:12;3.50;99.90
8099;DHT22;4092;47.876;9.372;2023-12-20T02:55:39;3.60;99.90
8099;DHT22;4092;47.876;9.372;2023-12-20T02:58:08;3.60;99.90
8099;DHT22;4092;47.876;9.372;2023-12-20T03:00:35;3.70;99.90
8099;DHT22;4092;47.876;9.372;2023-12-20T03:03:02;3.70;99.90
8099;DHT22;4092;47.876;9.372;2023-12-20T03:05:29;3.70;99.90
8099;DHT22;4092;47.876;9.372;2023-12-20T03:07:56;3.70;99.90
8099;DHT22;4092;47.876;9.372;2023-12-20T03:10:23;3.70;99.90
8099;DHT22;4092;47.876;9.372;2023-12-20T03:12:50;3.70;99.90
8099;DHT22;4092;47.876;9.372;2023-12-20T03:15:18;3.70;99.90
8099;DHT22;4092;47.876;9.372;2023-12-20T03:17:45;3.70;99.90
8099;DHT22;4092;47.876;9.372;2023-12-20T03:20:12;3.70;99.90
8099;DHT22;4092;47.876;9.372;2023-12-20T03:22:39;3.60;99.90
8099;DHT22;4092;47.876;9.372;2023-12-20T03:25:07;3.60;99.90
8099;DHT22;4092;47.876;9.372;2023-12-20T03:27:34;3.60;99.90
8099;DHT22;4092;47.876;9.372;2023-12-20T03:30:00;3.60;99.90
8099;DHT22;4092;47.876;9.372;2023-12-20T03:32:29;3.50;99.90
8099;DHT22;4092;47.876;9.372;2023-12-20T03:34:56;3.50;99.90
8099;DHT22;4092;47.876;9.372;2023-12-20T03:37:23;3.50;99.90
8099;DHT22;4092;47.876;9.372;2023-12-20T03:39:51;3.50;99.90
8099;DHT22;4092;47.876;9.372;2023-12-20T03:42:18;3.40;99.90
8099;DHT22;4092;47.876;9.372;2023-12-20T03:44:45;3.40;99.90
8099;DHT22;4092;47.876;9.372;2023-12-20T03:47:12;3.30;99.90
8099;DHT22;4092;47.876;9.372;2023-12-20T03:49:41;3.30;99.90
8099;DHT22;4092;47.876;9.372;2023-12-20T03:52:09;3.30;99.90
8099;DHT22;4092;47.876;9.372;2023-12-20T03:54:36;3.20;99.90
8099;DHT22;4092;47.876;9.372;2023-12-20T03:57:03;3.20;99.90
8099;DHT22;4092;47.876;9.372;2023-12-20T03:59:34;3.10;99.90
8099;DHT22;4092;47.876;9.372;2023-12-20T04:02:01;3.10;99.90
8099;DHT22;4092;47.876;9.372;2023-12-20T04:04:28;3.00;99.90
8099;DHT22;4092;47.876;9.372;2023-12-20T04:06:57;3.00;99.90
8099;DHT22;4092;47.876;9.372;2023-12-20T04:09:24;3.00;99.90
8099;DHT22;4092;47.876;9.372;2023-12-20T04:11:51;3.00;99.90
8099;DHT22;4092;47.876;9.372;2023-12-20T04:14:18;2.90;99.90
8099;DHT22;4092;47.876;9.372;2023-12-20T04:16:45;2.90;99.90
8099;DHT22;4092;47.876;9.372;2023-12-20T04:19:12;2.80;99.90
8099;DHT22;4092;47.876;9.372;2023-12-20T04:21:39;2.70;99.90
8099;DHT22;4092;47.876;9.372;2023-12-20T04:24:07;2.70;99.90
8099;DHT22;4092;47.876;9.372;2023-12-20T04:26:34;2.60;99.90
8099;DHT22;4092;47.876;9.372;2023-12-20T04:29:01;2.60;99.90
8099;DHT22;4092;47.876;9.372;2023-12-20T04:31:28;2.60;99.90
8099;DHT22;4092;47.876;9.372;2023-12-20T04:33:55;2.60;99.90
8099;DHT22;4092;47.876;9.372;2023-12-20T04:36:23;2.50;99.90
8099;DHT22;4092;47.876;9.372;2023-12-20T04:38:53;2.50;99.90
8099;DHT22;4092;47.876;9.372;2023-12-20T04:41:21;2.50;99.90
8099;DHT22;4092;47.876;9.372;2023-12-20T04:43:50;2.40;99.90
8099;DHT22;4092;47.876;9.372;2023-12-20T04:46:16;2.40;99.90
8099;DHT22;4092;47.876;9.372;2023-12-20T04:48:43;2.40;99.90
8099;DHT22;4092;47.876;9.372;2023-12-20T04:51:11;2.40;99.90
8099;DHT22;4092;47.876;9.372;2023-12-20T04:53:38;2.40;99.90
8099;DHT22;4092;47.876;9.372;2023-12-20T04:56:05;2.40;99.90
8099;DHT22;4092;47.876;9.372;2023-12-20T04:58:34;2.40;99.90
8099;DHT22;4092;47.876;9.372;2023-12-20T05:01:00;2.50;99.90
8099;DHT22;4092;47.876;9.372;2023-12-20T05:03:28;2.50;99.90
8099;DHT22;4092;47.876;9.372;2023-12-20T05:05:56;2.60;99.90
8099;DHT22;4092;47.876;9.372;2023-12-20T05:08:23;2.60;99.90
8099;DHT22;4092;47.876;9.372;2023-12-20T05:10:50;2.70;99.90
8099;DHT22;4092;47.876;9.372;2023-12-20T05:13:18;2.70;99.90
8099;DHT22;4092;47.876;9.372;2023-12-20T05:15:46;2.70;99.90
8099;DHT22;4092;47.876;9.372;2023-12-20T05:18:13;2.70;99.90
8099;DHT22;4092;47.876;9.372;2023-12-20T05:20:40;2.70;99.90
8099;DHT22;4092;47.876;9.372;2023-12-20T05:23:07;2.80;99.90
8099;DHT22;4092;47.876;9.372;2023-12-20T05:25:34;2.80;99.90
8099;DHT22;4092;47.876;9.372;2023-12-20T05:28:02;2.80;99.90
8099;DHT22;4092;47.876;9.372;2023-12-20T05:30:29;2.80;99.90
8099;DHT22;4092;47.876;9.372;2023-12-20T05:32:58;2.80;99.90
8099;DHT22;4092;47.876;9.372;2023-12-20T05:35:25;2.80;99.90
8099;DHT22;4092;47.876;9.372;2023-12-20T05:37:52;2.90;99.90
8099;DHT22;4092;47.876;9.372;2023-12-20T05:40:19;2.90;99.90
8099;DHT22;4092;47.876;9.372;2023-12-20T05:42:46;2.90;99.90
8099;DHT22;4092;47.876;9.372;2023-12-20T05:45:15;2.90;99.90
8099;DHT22;4092;47.876;9.372;2023-12-20T05:47:42;2.90;99.90
8099;DHT22;4092;47.876;9.372;2023-12-20T05:50:11;2.90;99.90
8099;DHT22;4092;47.876;9.372;2023-12-20T05:52:37;2.90;99.90
8099;DHT22;4092;47.876;9.372;2023-12-20T05:55:05;3.00;99.90
8099;DHT22;4092;47.876;9.372;2023-12-20T05:57:32;3.00;99.90
8099;DHT22;4092;47.876;9.372;2023-12-20T05:59:59;3.00;99.90
8099;DHT22;4092;47.876;9.372;2023-12-20T06:02:26;3.00;99.90
8099;DHT22;4092;47.876;9.372;2023-12-20T06:04:54;3.00;99.90
8099;DHT22;4092;47.876;9.372;2023-12-20T06:07:22;3.00;99.90
8099;DHT22;4092;47.876;9.372;2023-12-20T06:09:49;3.00;99.90
8099;DHT22;4092;47.876;9.372;2023-12-20T06:12:16;3.00;99.90
8099;DHT22;4092;47.876;9.372;2023-12-20T06:14:43;3.10;99.90
8099;DHT22;4092;47.876;9.372;2023-12-20T06:17:10;3.10;99.90
8099;DHT22;4092;47.876;9.372;2023-12-20T06:19:37;3.10;99.90
8099;DHT22;4092;47.876;9.372;2023-12-20T06:22:04;3.20;99.90
8099;DHT22;4092;47.876;9.372;2023-12-20T06:24:32;3.10;99.90
8099;DHT22;4092;47.876;9.372;2023-12-20T06:26:59;3.10;99.90
8099;DHT22;4092;47.876;9.372;2023-12-20T06:29:26;3.20;99.90
8099;DHT22;4092;47.876;9.372;2023-12-20T06:31:54;3.20;99.90
8099;DHT22;4092;47.876;9.372;2023-12-20T06:34:22;3.20;99.90
8099;DHT22;4092;47.876;9.372;2023-12-20T06:36:49;3.20;99.90
8099;DHT22;4092;47.876;9.372;2023-12-20T06:39:16;3.10;99.90
8099;DHT22;4092;47.876;9.372;2023-12-20T06:41:44;3.20;99.90
8099;DHT22;4092;47.876;9.372;2023-12-20T06:44:11;3.20;99.90
8099;DHT22;4092;47.876;9.372;2023-12-20T06:46:38;3.10;99.90
8099;DHT22;4092;47.876;9.372;2023-12-20T06:49:05;3.10;99.90
8099;DHT22;4092;47.876;9.372;2023-12-20T06:51:32;3.10;99.90
8099;DHT22;4092;47.876;9.372;2023-12-20T06:53:59;3.30;99.90
8099;DHT22;4092;47.876;9.372;2023-12-20T06:56:28;3.30;99.90
8099;DHT22;4092;47.876;9.372;2023-12-20T06:58:56;3.30;99.90
8099;DHT22;4092;47.876;9.372;2023-12-20T07:01:23;3.30;99.90
8099;DHT22;4092;47.876;9.372;2023-12-20T07:03:50;3.30;99.90
8099;DHT22;4092;47.876;9.372;2023-12-20T07:06:17;3.30;99.90
8099;DHT22;4092;47.876;9.372;2023-12-20T07:08:45;3.30;99.90
8099;DHT22;4092;47.876;9.372;2023-12-20T07:11:12;3.30;99.90
8099;DHT22;4092;47.876;9.372;2023-12-20T07:13:39;3.30;99.90
8099;DHT22;4092;47.876;9.372;2023-12-20T07:16:08;3.30;99.90
8099;DHT22;4092;47.876;9.372;2023-12-20T07:18:35;3.30;99.90
8099;DHT22;4092;47.876;9.372;2023-12-20T07:21:02;3.40;99.90
8099;DHT22;4092;47.876;9.372;2023-12-20T07:23:29;3.40;99.90
8099;DHT22;4092;47.876;9.372;2023-12-20T07:25:56;3.30;99.90
8099;DHT22;4092;47.876;9.372;2023-12-20T07:28:24;3.40;99.90
8099;DHT22;4092;47.876;9.372;2023-12-20T07:30:51;3.40;99.90
8099;DHT22;4092;47.876;9.372;2023-12-20T07:33:19;3.40;99.90
8099;DHT22;4092;47.876;9.372;2023-12-20T07:35:47;3.40;99.90
8099;DHT22;4092;47.876;9.372;2023-12-20T07:38:17;3.50;99.90
8099;DHT22;4092;47.876;9.372;2023-12-20T07:40:44;3.50;99.90
8099;DHT22;4092;47.876;9.372;2023-12-20T07:43:11;3.50;99.90
8099;DHT22;4092;47.876;9.372;2023-12-20T07:45:38;3.50;99.90
8099;DHT22;4092;47.876;9.372;2023-12-20T07:48:07;3.50;99.90
8099;DHT22;4092;47.876;9.372;2023-12-20T07:50:35;3.50;99.90
8099;DHT22;4092;47.876;9.372;2023-12-20T07:53:04;3.50;99.90
8099;DHT22;4092;47.876;9.372;2023-12-20T07:55:31;3.50;99.90
8099;DHT22;4092;47.876;9.372;2023-12-20T07:57:58;3.50;99.90
8099;DHT22;4092;47.876;9.372;2023-12-20T08:00:27;3.60;99.90
8099;DHT22;4092;47.876;9.372;2023-12-20T08:02:54;3.60;99.90
8099;DHT22;4092;47.876;9.372;2023-12-20T08:05:21;3.60;99.90
8099;DHT22;4092;47.876;9.372;2023-12-20T08:07:50;3.60;99.90
8099;DHT22;4092;47.876;9.372;2023-12-20T08:10:17;3.60;99.90
8099;DHT22;4092;47.876;9.372;2023-12-20T08:12:44;3.70;99.90
8099;DHT22;4092;47.876;9.372;2023-12-20T08:15:12;3.60;99.90
8099;DHT22;4092;47.876;9.372;2023-12-20T08:17:40;3.60;99.90
8099;DHT22;4092;47.876;9.372;2023-12-20T08:20:07;3.70;99.90
8099;DHT22;4092;47.876;9.372;2023-12-20T08:22:34;3.70;99.90
8099;DHT22;4092;47.876;9.372;2023-12-20T08:25:04;3.80;99.90
8099;DHT22;4092;47.876;9.372;2023-12-20T08:27:31;3.80;99.90
8099;DHT22;4092;47.876;9.372;2023-12-20T08:29:59;3.80;99.90
8099;DHT22;4092;47.876;9.372;2023-12-20T08:32:26;3.80;99.90
8099;DHT22;4092;47.876;9.372;2023-12-20T08:34:53;3.80;99.90
8099;DHT22;4092;47.876;9.372;2023-12-20T08:37:21;3.80;99.90
8099;DHT22;4092;47.876;9.372;2023-12-20T08:39:47;3.80;99.90
8099;DHT22;4092;47.876;9.372;2023-12-20T08:42:16;3.80;99.90
8099;DHT22;4092;47.876;9.372;2023-12-20T08:44:43;3.90;99.90
8099;DHT22;4092;47.876;9.372;2023-12-20T08:47:10;3.90;99.90
8099;DHT22;4092;47.876;9.372;2023-12-20T08:49:38;4.00;99.90
8099;DHT22;4092;47.876;9.372;2023-12-20T08:52:05;4.00;99.90
8099;DHT22;4092;47.876;9.372;2023-12-20T08:54:32;3.90;99.90
8099;DHT22;4092;47.876;9.372;2023-12-20T08:57:00;3.90;99.90
8099;DHT22;4092;47.876;9.372;2023-12-20T08:59:28;4.00;99.90
8099;DHT22;4092;47.876;9.372;2023-12-20T09:01:55;4.00;99.90
8099;DHT22;4092;47.876;9.372;2023-12-20T09:04:22;3.90;99.90
8099;DHT22;4092;47.876;9.372;2023-12-20T09:06:49;3.90;99.90
8099;DHT22;4092;47.876;9.372;2023-12-20T09:09:16;3.90;99.90
8099;DHT22;4092;47.876;9.372;2023-12-20T09:11:44;3.90;99.90
8099;DHT22;4092;47.876;9.372;2023-12-20T09:14:11;3.90;99.90
8099;DHT22;4092;47.876;9.372;2023-12-20T09:16:40;3.90;99.90
8099;DHT22;4092;47.876;9.372;2023-12-20T09:19:07;3.90;99.90
8099;DHT22;4092;47.876;9.372;2023-12-20T09:21:34;3.90;99.90
8099;DHT22;4092;47.876;9.372;2023-12-20T09:24:01;3.90;99.90
8099;DHT22;4092;47.876;9.372;2023-12-20T09:26:28;3.90;99.90
8099;DHT22;4092;47.876;9.372;2023-12-20T09:28:55;3.90;99.90
8099;DHT22;4092;47.876;9.372;2023-12-20T09:31:22;3.90;99.90
8099;DHT22;4092;47.876;9.372;2023-12-20T09:33:51;4.00;99.90
8099;DHT22;4092;47.876;9.372;2023-12-20T09:36:18;4.00;99.90
8099;DHT22;4092;47.876;9.372;2023-12-20T09:38:45;4.00;99.90
8099;DHT22;4092;47.876;9.372;2023-12-20T09:41:12;4.00;99.90
8099;DHT22;4092;47.876;9.372;2023-12-20T09:43:41;4.00;99.90
8099;DHT22;4092;47.876;9.372;2023-12-20T09:46:11;4.10;99.90
8099;DHT22;4092;47.876;9.372;2023-12-20T09:48:39;4.10;99.90
8099;DHT22;4092;47.876;9.372;2023-12-20T09:51:09;4.10;99.90
8099;DHT22;4092;47.876;9.372;2023-12-20T09:53:37;4.10;99.90
8099;DHT22;4092;47.876;9.372;2023-12-20T09:56:06;4.10;99.90
8099;DHT22;4092;47.876;9.372;2023-12-20T09:58:36;4.20;99.90
8099;DHT22;4092;47.876;9.372;2023-12-20T10:01:03;4.30;99.90
8099;DHT22;4092;47.876;9.372;2023-12-20T10:03:31;4.30;99.90
8099;DHT22;4092;47.876;9.372;2023-12-20T10:05:59;4.30;99.90
8099;DHT22;4092;47.876;9.372;2023-12-20T10:08:28;4.40;99.90
8099;DHT22;4092;47.876;9.372;2023-12-20T10:10:55;4.30;99.90
8099;DHT22;4092;47.876;9.372;2023-12-20T10:13:28;4.30;99.90
8099;DHT22;4092;47.876;9.372;2023-12-20T10:15:55;4.30;99.90
8099;DHT22;4092;47.876;9.372;2023-12-20T10:18:23;4.20;99.90
8099;DHT22;4092;47.876;9.372;2023-12-20T10:20:50;4.20;99.90
8099;DHT22;4092;47.876;9.372;2023-12-20T10:23:17;4.20;99.90
8099;DHT22;4092;47.876;9.372;2023-12-20T10:25:57;4.10;99.90
8099;DHT22;4092;47.876;9.372;2023-12-20T10:28:24;4.10;99.90
8099;DHT22;4092;47.876;9.372;2023-12-20T10:30:53;4.10;99.90
8099;DHT22;4092;47.876;9.372;2023-12-20T10:33:24;4.10;99.90
8099;DHT22;4092;47.876;9.372;2023-12-20T10:35:52;4.10;99.90
8099;DHT22;4092;47.876;9.372;2023-12-20T10:38:19;4.10;99.90
8099;DHT22;4092;47.876;9.372;2023-12-20T10:40:49;4.20;99.90
8099;DHT22;4092;47.876;9.372;2023-12-20T10:43:20;4.20;99.90
8099;DHT22;4092;47.876;9.372;2023-12-20T10:45:48;4.20;99.90
8099;DHT22;4092;47.876;9.372;2023-12-20T10:48:15;4.30;99.90
8099;DHT22;4092;47.876;9.372;2023-12-20T10:50:43;4.40;99.90
8099;DHT22;4092;47.876;9.372;2023-12-20T10:53:12;4.40;99.90
8099;DHT22;4092;47.876;9.372;2023-12-20T10:55:40;4.40;99.90
8099;DHT22;4092;47.876;9.372;2023-12-20T10:58:10;4.40;99.90
8099;DHT22;4092;47.876;9.372;2023-12-20T11:00:40;4.30;99.90
8099;DHT22;4092;47.876;9.372;2023-12-20T11:03:09;4.30;99.90
8099;DHT22;4092;47.876;9.372;2023-12-20T11:05:41;4.30;99.90
8099;DHT22;4092;47.876;9.372;2023-12-20T11:08:13;4.30;99.90
8099;DHT22;4092;47.876;9.372;2023-12-20T11:10:48;4.40;99.90
8099;DHT22;4092;47.876;9.372;2023-12-20T11:13:21;4.30;99.90
8099;DHT22;4092;47.876;9.372;2023-12-20T11:15:49;4.30;99.90
8099;DHT22;4092;47.876;9.372;2023-12-20T11:18:17;4.40;99.90
8099;DHT22;4092;47.876;9.372;2023-12-20T11:20:44;4.30;99.90
8099;DHT22;4092;47.876;9.372;2023-12-20T11:23:11;4.30;99.90
8099;DHT22;4092;47.876;9.372;2023-12-20T11:25:48;4.30;99.90
8099;DHT22;4092;47.876;9.372;2023-12-20T11:28:23;4.40;99.90
8099;DHT22;4092;47.876;9.372;2023-12-20T11:30:52;4.40;99.90
8099;DHT22;4092;47.876;9.372;2023-12-20T11:33:22;4.40;99.90
8099;DHT22;4092;47.876;9.372;2023-12-20T11:35:50;4.50;99.90
8099;DHT22;4092;47.876;9.372;2023-12-20T11:38:19;4.50;99.90
8099;DHT22;4092;47.876;9.372;2023-12-20T11:40:48;4.50;99.90
8099;DHT22;4092;47.876;9.372;2023-12-20T11:43:31;4.50;99.90
8099;DHT22;4092;47.876;9.372;2023-12-20T11:46:03;4.50;99.90
8099;DHT22;4092;47.876;9.372;2023-12-20T11:48:31;4.50;99.90
8099;DHT22;4092;47.876;9.372;2023-12-20T11:50:59;4.60;99.90
8099;DHT22;4092;47.876;9.372;2023-12-20T11:53:26;4.70;99.90
8099;DHT22;4092;47.876;9.372;2023-12-20T11:55:54;5.00;99.90
8099;DHT22;4092;47.876;9.372;2023-12-20T11:58:22;5.30;99.90
8099;DHT22;4092;47.876;9.372;2023-12-20T12:00:51;5.40;99.90
8099;DHT22;4092;47.876;9.372;2023-12-20T12:03:18;5.40;99.90
8099;DHT22;4092;47.876;9.372;2023-12-20T12:05:47;5.40;99.90
8099;DHT22;4092;47.876;9.372;2023-12-20T12:08:16;5.20;99.90
8099;DHT22;4092;47.876;9.372;2023-12-20T12:10:44;4.90;99.90
8099;DHT22;4092;47.876;9.372;2023-12-20T12:13:11;4.70;99.90
8099;DHT22;4092;47.876;9.372;2023-12-20T12:15:39;4.50;99.90
8099;DHT22;4092;47.876;9.372;2023-12-20T12:18:09;4.20;99.90
8099;DHT22;4092;47.876;9.372;2023-12-20T12:20:36;4.20;99.90
8099;DHT22;4092;47.876;9.372;2023-12-20T12:23:04;4.20;99.90
8099;DHT22;4092;47.876;9.372;2023-12-20T12:25:35;4.20;99.90
8099;DHT22;4092;47.876;9.372;2023-12-20T12:28:03;4.20;99.90
8099;DHT22;4092;47.876;9.372;2023-12-20T12:30:30;4.10;99.90
8099;DHT22;4092;47.876;9.372;2023-12-20T12:32:57;4.20;99.90
8099;DHT22;4092;47.876;9.372;2023-12-20T12:35:26;4.10;99.90
8099;DHT22;4092;47.876;9.372;2023-12-20T12:37:53;4.30;99.90
8099;DHT22;4092;47.876;9.372;2023-12-20T12:40:21;4.30;99.90
8099;DHT22;4092;47.876;9.372;2023-12-20T12:42:48;4.30;99.90
8099;DHT22;4092;47.876;9.372;2023-12-20T12:45:15;4.40;99.90
8099;DHT22;4092;47.876;9.372;2023-12-20T12:47:42;4.50;99.90
8099;DHT22;4092;47.876;9.372;2023-12-20T12:50:09;4.60;99.90
8099;DHT22;4092;47.876;9.372;2023-12-20T12:52:38;4.70;99.90
8099;DHT22;4092;47.876;9.372;2023-12-20T12:55:06;4.70;99.90
8099;DHT22;4092;47.876;9.372;2023-12-20T12:57:33;4.70;99.90
8099;DHT22;4092;47.876;9.372;2023-12-20T13:00:00;4.70;99.90
8099;DHT22;4092;47.876;9.372;2023-12-20T13:02:28;4.70;99.90
8099;DHT22;4092;47.876;9.372;2023-12-20T13:04:56;4.70;99.90
8099;DHT22;4092;47.876;9.372;2023-12-20T13:07:23;4.60;99.90
8099;DHT22;4092;47.876;9.372;2023-12-20T13:09:51;4.60;99.90
8099;DHT22;4092;47.876;9.372;2023-12-20T13:12:18;4.60;99.90
8099;DHT22;4092;47.876;9.372;2023-12-20T13:14:47;4.60;99.90
8099;DHT22;4092;47.876;9.372;2023-12-20T13:17:14;4.50;99.90
8099;DHT22;4092;47.876;9.372;2023-12-20T13:19:42;4.50;99.90
8099;DHT22;4092;47.876;9.372;2023-12-20T13:22:12;4.50;99.90
8099;DHT22;4092;47.876;9.372;2023-12-20T13:24:42;4.50;99.90
8099;DHT22;4092;47.876;9.372;2023-12-20T13:27:15;4.40;99.90
8099;DHT22;4092;47.876;9.372;2023-12-20T13:29:44;4.50;99.90
8099;DHT22;4092;47.876;9.372;2023-12-20T13:32:12;4.60;99.90
8099;DHT22;4092;47.876;9.372;2023-12-20T13:34:39;4.50;99.90
8099;DHT22;4092;47.876;9.372;2023-12-20T13:37:07;4.50;99.90
8099;DHT22;4092;47.876;9.372;2023-12-20T13:39:34;4.50;99.90
8099;DHT22;4092;47.876;9.372;2023-12-20T13:42:02;4.60;99.90
8099;DHT22;4092;47.876;9.372;2023-12-20T13:44:32;4.60;99.90
8099;DHT22;4092;47.876;9.372;2023-12-20T13:46:59;4.60;99.90
8099;DHT22;4092;47.876;9.372;2023-12-20T13:49:27;4.60;99.90
8099;DHT22;4092;47.876;9.372;2023-12-20T13:51:55;4.60;99.90
8099;DHT22;4092;47.876;9.372;2023-12-20T13:54:23;4.60;99.90
8099;DHT22;4092;47.876;9.372;2023-12-20T13:56:52;4.40;99.90
8099;DHT22;4092;47.876;9.372;2023-12-20T13:59:19;4.30;99.90
8099;DHT22;4092;47.876;9.372;2023-12-20T14:01:49;4.30;99.90
8099;DHT22;4092;47.876;9.372;2023-12-20T14:04:20;4.20;99.90
8099;DHT22;4092;47.876;9.372;2023-12-20T14:06:47;4.20;99.90
8099;DHT22;4092;47.876;9.372;2023-12-20T14:09:14;4.30;99.90
8099;DHT22;4092;47.876;9.372;2023-12-20T14:11:41;4.30;99.90
8099;DHT22;4092;47.876;9.372;2023-12-20T14:14:13;4.30;99.90
8099;DHT22;4092;47.876;9.372;2023-12-20T14:16:40;4.20;99.90
8099;DHT22;4092;47.876;9.372;2023-12-20T14:19:12;4.10;99.90
8099;DHT22;4092;47.876;9.372;2023-12-20T14:21:38;4.00;99.90
8099;DHT22;4092;47.876;9.372;2023-12-20T14:24:06;4.00;99.90
8099;DHT22;4092;47.876;9.372;2023-12-20T14:26:33;4.10;99.90
8099;DHT22;4092;47.876;9.372;2023-12-20T14:29:00;4.10;99.90
8099;DHT22;4092;47.876;9.372;2023-12-20T14:31:29;4.20;99.90
8099;DHT22;4092;47.876;9.372;2023-12-20T14:33:56;4.10;99.90
8099;DHT22;4092;47.876;9.372;2023-12-20T14:36:25;4.10;99.90
8099;DHT22;4092;47.876;9.372;2023-12-20T14:38:52;4.00;99.90
8099;DHT22;4092;47.876;9.372;2023-12-20T14:41:20;3.80;99.90
8099;DHT22;4092;47.876;9.372;2023-12-20T14:43:50;3.60;99.90
8099;DHT22;4092;47.876;9.372;2023-12-20T14:46:17;3.50;99.90
8099;DHT22;4092;47.876;9.372;2023-12-20T14:48:45;3.30;99.90
8099;DHT22;4092;47.876;9.372;2023-12-20T14:51:12;3.20;99.90
8099;DHT22;4092;47.876;9.372;2023-12-20T14:53:41;3.10;99.90
8099;DHT22;4092;47.876;9.372;2023-12-20T14:56:09;3.10;99.90
8099;DHT22;4092;47.876;9.372;2023-12-20T14:58:37;2.90;99.90
8099;DHT22;4092;47.876;9.372;2023-12-20T15:01:04;2.80;99.90
8099;DHT22;4092;47.876;9.372;2023-12-20T15:03:34;2.90;99.90
8099;DHT22;4092;47.876;9.372;2023-12-20T15:06:06;2.90;99.90
8099;DHT22;4092;47.876;9.372;2023-12-20T15:08:44;2.80;99.90
8099;DHT22;4092;47.876;9.372;2023-12-20T15:11:12;2.70;99.90
8099;DHT22;4092;47.876;9.372;2023-12-20T15:13:44;2.70;99.90
8099;DHT22;4092;47.876;9.372;2023-12-20T15:16:13;2.70;99.90
8099;DHT22;4092;47.876;9.372;2023-12-20T15:18:40;2.70;99.90
8099;DHT22;4092;47.876;9.372;2023-12-20T15:21:10;2.60;99.90
8099;DHT22;4092;47.876;9.372;2023-12-20T15:23:37;2.50;99.90
8099;DHT22;4092;47.876;9.372;2023-12-20T15:26:09;2.60;99.90
8099;DHT22;4092;47.876;9.372;2023-12-20T15:28:37;2.60;99.90
8099;DHT22;4092;47.876;9.372;2023-12-20T15:31:09;2.60;99.90
8099;DHT22;4092;47.876;9.372;2023-12-20T15:33:36;2.60;99.90
8099;DHT22;4092;47.876;9.372;2023-12-20T15:36:03;2.60;99.90
8099;DHT22;4092;47.876;9.372;2023-12-20T15:38:30;2.60;99.90
8099;DHT22;4092;47.876;9.372;2023-12-20T15:40:58;2.60;99.90
8099;DHT22;4092;47.876;9.372;2023-12-20T15:43:26;2.60;99.90
8099;DHT22;4092;47.876;9.372;2023-12-20T15:45:53;2.60;99.90
8099;DHT22;4092;47.876;9.372;2023-12-20T15:48:23;2.50;99.90
8099;DHT22;4092;47.876;9.372;2023-12-20T15:50:56;2.50;99.90
8099;DHT22;4092;47.876;9.372;2023-12-20T15:53:24;2.50;99.90
8099;DHT22;4092;47.876;9.372;2023-12-20T15:55:51;2.50;99.90
8099;DHT22;4092;47.876;9.372;2023-12-20T15:58:18;2.50;99.90
8099;DHT22;4092;47.876;9.372;2023-12-20T16:00:50;2.60;99.90
8099;DHT22;4092;47.876;9.372;2023-12-20T16:03:18;2.50;99.90
8099;DHT22;4092;47.876;9.372;2023-12-20T16:05:45;2.50;99.90
8099;DHT22;4092;47.876;9.372;2023-12-20T16:08:12;2.40;99.90
8099;DHT22;4092;47.876;9.372;2023-12-20T16:10:40;2.40;99.90
8099;DHT22;4092;47.876;9.372;2023-12-20T16:13:07;2.40;99.90
8099;DHT22;4092;47.876;9.372;2023-12-20T16:15:34;2.40;99.90
8099;DHT22;4092;47.876;9.372;2023-12-20T16:18:03;2.50;99.90
8099;DHT22;4092;47.876;9.372;2023-12-20T16:20:34;2.50;99.90